sensor_id;sensor_type;location;lat;lon;timestamp;P1;durP1;ratioP1;P2;durP2;ratioP2
28028;SDS011;15345;59.364;18.016;2023-01-10T00:01:04;10.40;;;7.28;;
28028;SDS011;15345;59.364;18.016;2023-01-10T00:03:42;12.00;;;6.90;;
28028;SDS011;15345;59.364;18.016;2023-01-10T00:05:01;10.07;;;6.63;;
28028;SDS011;15345;59.364;18.016;2023-01-10T00:06:19;11.82;;;7.40;;
28028;SDS011;15345;59.364;18.016;2023-01-10T00:07:39;12.88;;;8.15;;
28028;SDS011;15345;59.364;18.016;2023-01-10T00:08:57;11.07;;;7.82;;
28028;SDS011;15345;59.364;18.016;2023-01-10T00:10:16;8.85;;;7.30;;
28028;SDS011;15345;59.364;18.016;2023-01-10T00:11:36;7.32;;;6.43;;
28028;SDS011;15345;59.364;18.016;2023-01-10T00:13:14;9.05;;;6.72;;
28028;SDS011;15345;59.364;18.016;2023-01-10T00:14:42;9.25;;;7.30;;
28028;SDS011;15345;59.364;18.016;2023-01-10T00:16:06;7.88;;;7.13;;
28028;SDS011;15345;59.364;18.016;2023-01-10T00:17:25;12.88;;;7.22;;
28028;SDS011;15345;59.364;18.016;2023-01-10T00:18:44;8.30;;;6.60;;
28028;SDS011;15345;59.364;18.016;2023-01-10T00:20:03;9.57;;;7.25;;
28028;SDS011;15345;59.364;18.016;2023-01-10T00:21:22;8.50;;;6.70;;
28028;SDS011;15345;59.364;18.016;2023-01-10T00:22:42;8.63;;;6.40;;
28028;SDS011;15345;59.364;18.016;2023-01-10T00:24:02;8.43;;;6.70;;
28028;SDS011;15345;59.364;18.016;2023-01-10T00:25:42;10.25;;;6.70;;
28028;SDS011;15345;59.364;18.016;2023-01-10T00:27:01;11.68;;;6.88;;
28028;SDS011;15345;59.364;18.016;2023-01-10T00:28:20;7.90;;;6.55;;
28028;SDS011;15345;59.364;18.016;2023-01-10T00:29:39;10.35;;;7.00;;
28028;SDS011;15345;59.364;18.016;2023-01-10T00:30:59;9.48;;;6.95;;
28028;SDS011;15345;59.364;18.016;2023-01-10T00:32:24;10.10;;;6.53;;
28028;SDS011;15345;59.364;18.016;2023-01-10T00:33:43;10.60;;;7.13;;
28028;SDS011;15345;59.364;18.016;2023-01-10T00:35:02;10.93;;;7.57;;
28028;SDS011;15345;59.364;18.016;2023-01-10T00:36:24;10.77;;;7.30;;
28028;SDS011;15345;59.364;18.016;2023-01-10T00:37:43;8.82;;;7.50;;
28028;SDS011;15345;59.364;18.016;2023-01-10T00:39:02;10.07;;;7.40;;
28028;SDS011;15345;59.364;18.016;2023-01-10T00:40:22;11.40;;;7.70;;
28028;SDS011;15345;59.364;18.016;2023-01-10T00:41:41;11.27;;;7.30;;
28028;SDS011;15345;59.364;18.016;2023-01-10T00:43:19;9.23;;;6.60;;
28028;SDS011;15345;59.364;18.016;2023-01-10T00:44:57;12.75;;;7.30;;
28028;SDS011;15345;59.364;18.016;2023-01-10T00:46:16;8.60;;;7.38;;
28028;SDS011;15345;59.364;18.016;2023-01-10T00:47:35;10.73;;;7.63;;
28028;SDS011;15345;59.364;18.016;2023-01-10T00:48:54;9.77;;;7.32;;
28028;SDS011;15345;59.364;18.016;2023-01-10T00:50:15;10.93;;;7.47;;
28028;SDS011;15345;59.364;18.016;2023-01-10T00:51:34;8.88;;;7.05;;
28028;SDS011;15345;59.364;18.016;2023-01-10T00:52:53;11.50;;;7.47;;
28028;SDS011;15345;59.364;18.016;2023-01-10T00:54:13;10.70;;;6.57;;
28028;SDS011;15345;59.364;18.016;2023-01-10T00:55:32;9.88;;;7.20;;
28028;SDS011;15345;59.364;18.016;2023-01-10T00:56:52;10.10;;;7.15;;
28028;SDS011;15345;59.364;18.016;2023-01-10T00:58:12;9.07;;;7.20;;
28028;SDS011;15345;59.364;18.016;2023-01-10T00:59:31;9.40;;;7.95;;
28028;SDS011;15345;59.364;18.016;2023-01-10T01:00:49;15.68;;;8.15;;
28028;SDS011;15345;59.364;18.016;2023-01-10T01:02:08;12.20;;;7.35;;
28028;SDS011;15345;59.364;18.016;2023-01-10T01:03:27;9.43;;;7.60;;
28028;SDS011;15345;59.364;18.016;2023-01-10T01:04:46;10.45;;;7.80;;
28028;SDS011;15345;59.364;18.016;2023-01-10T01:06:05;10.27;;;7.53;;
28028;SDS011;15345;59.364;18.016;2023-01-10T01:07:25;10.07;;;7.43;;
28028;SDS011;15345;59.364;18.016;2023-01-10T01:08:43;10.20;;;7.70;;
28028;SDS011;15345;59.364;18.016;2023-01-10T01:10:02;11.13;;;8.10;;
28028;SDS011;15345;59.364;18.016;2023-01-10T01:11:40;10.20;;;7.78;;
28028;SDS011;15345;59.364;18.016;2023-01-10T01:13:04;10.60;;;8.00;;
28028;SDS011;15345;59.364;18.016;2023-01-10T01:14:24;12.43;;;8.15;;
28028;SDS011;15345;59.364;18.016;2023-01-10T01:15:43;11.25;;;8.25;;
28028;SDS011;15345;59.364;18.016;2023-01-10T01:17:02;11.45;;;8.43;;
28028;SDS011;15345;59.364;18.016;2023-01-10T01:18:20;11.25;;;7.75;;
28028;SDS011;15345;59.364;18.016;2023-01-10T01:19:39;12.02;;;8.30;;
28028;SDS011;15345;59.364;18.016;2023-01-10T01:20:58;11.65;;;8.30;;
28028;SDS011;15345;59.364;18.016;2023-01-10T01:22:22;11.75;;;8.15;;
28028;SDS011;15345;59.364;18.016;2023-01-10T01:23:41;12.05;;;8.77;;
28028;SDS011;15345;59.364;18.016;2023-01-10T01:25:00;12.52;;;7.95;;
28028;SDS011;15345;59.364;18.016;2023-01-10T01:26:19;11.80;;;8.25;;
28028;SDS011;15345;59.364;18.016;2023-01-10T01:27:38;10.70;;;8.43;;
28028;SDS011;15345;59.364;18.016;2023-01-10T01:28:57;9.48;;;7.78;;
28028;SDS011;15345;59.364;18.016;2023-01-10T01:30:16;10.63;;;8.05;;
28028;SDS011;15345;59.364;18.016;2023-01-10T01:31:35;11.82;;;7.93;;
28028;SDS011;15345;59.364;18.016;2023-01-10T01:32:54;11.68;;;7.90;;
28028;SDS011;15345;59.364;18.016;2023-01-10T01:34:13;10.05;;;7.80;;
28028;SDS011;15345;59.364;18.016;2023-01-10T01:35:32;11.90;;;8.38;;
28028;SDS011;15345;59.364;18.016;2023-01-10T01:36:51;11.68;;;7.97;;
28028;SDS011;15345;59.364;18.016;2023-01-10T01:38:10;11.20;;;8.02;;
28028;SDS011;15345;59.364;18.016;2023-01-10T01:39:29;10.30;;;7.65;;
28028;SDS011;15345;59.364;18.016;2023-01-10T01:40:48;11.50;;;7.93;;
28028;SDS011;15345;59.364;18.016;2023-01-10T01:42:16;10.90;;;8.00;;
28028;SDS011;15345;59.364;18.016;2023-01-10T01:43:57;11.52;;;7.70;;
28028;SDS011;15345;59.364;18.016;2023-01-10T01:45:25;10.65;;;7.93;;
28028;SDS011;15345;59.364;18.016;2023-01-10T01:46:54;9.85;;;7.70;;
28028;SDS011;15345;59.364;18.016;2023-01-10T01:49:40;11.15;;;7.68;;
28028;SDS011;15345;59.364;18.016;2023-01-10T01:51:13;8.32;;;7.43;;
28028;SDS011;15345;59.364;18.016;2023-01-10T01:52:34;11.23;;;7.15;;
28028;SDS011;15345;59.364;18.016;2023-01-10T01:53:57;9.05;;;7.25;;
28028;SDS011;15345;59.364;18.016;2023-01-10T01:55:17;9.52;;;6.68;;
28028;SDS011;15345;59.364;18.016;2023-01-10T01:56:37;7.95;;;6.50;;
28028;SDS011;15345;59.364;18.016;2023-01-10T01:57:57;7.43;;;6.65;;
28028;SDS011;15345;59.364;18.016;2023-01-10T01:59:18;9.50;;;6.72;;
28028;SDS011;15345;59.364;18.016;2023-01-10T02:00:38;7.50;;;6.78;;
28028;SDS011;15345;59.364;18.016;2023-01-10T02:01:59;6.45;;;5.85;;
28028;SDS011;15345;59.364;18.016;2023-01-10T02:03:20;7.82;;;5.68;;
28028;SDS011;15345;59.364;18.016;2023-01-10T02:04:52;6.65;;;5.70;;
28028;SDS011;15345;59.364;18.016;2023-01-10T02:06:11;6.50;;;5.82;;
28028;SDS011;15345;59.364;18.016;2023-01-10T02:07:33;6.18;;;5.57;;
28028;SDS011;15345;59.364;18.016;2023-01-10T02:09:02;6.18;;;5.60;;
28028;SDS011;15345;59.364;18.016;2023-01-10T02:10:31;6.55;;;5.88;;
28028;SDS011;15345;59.364;18.016;2023-01-10T02:11:53;7.47;;;6.40;;
28028;SDS011;15345;59.364;18.016;2023-01-10T02:13:13;6.15;;;5.40;;
28028;SDS011;15345;59.364;18.016;2023-01-10T02:14:32;5.97;;;5.38;;
28028;SDS011;15345;59.364;18.016;2023-01-10T02:15:52;5.97;;;5.35;;
28028;SDS011;15345;59.364;18.016;2023-01-10T02:17:11;8.32;;;5.72;;
28028;SDS011;15345;59.364;18.016;2023-01-10T02:18:30;5.68;;;5.18;;
28028;SDS011;15345;59.364;18.016;2023-01-10T02:21:17;5.88;;;5.20;;
28028;SDS011;15345;59.364;18.016;2023-01-10T02:28:28;5.85;;;5.03;;
28028;SDS011;15345;59.364;18.016;2023-01-10T02:33:07;5.15;;;4.53;;
28028;SDS011;15345;59.364;18.016;2023-01-10T02:34:32;5.13;;;4.60;;
28028;SDS011;15345;59.364;18.016;2023-01-10T02:38:57;3.95;;;3.65;;
28028;SDS011;15345;59.364;18.016;2023-01-10T02:40:23;4.25;;;3.95;;
28028;SDS011;15345;59.364;18.016;2023-01-10T02:43:12;6.63;;;4.32;;
28028;SDS011;15345;59.364;18.016;2023-01-10T02:44:42;4.82;;;4.32;;
28028;SDS011;15345;59.364;18.016;2023-01-10T02:46:08;4.82;;;4.32;;
28028;SDS011;15345;59.364;18.016;2023-01-10T02:47:38;5.18;;;4.10;;
28028;SDS011;15345;59.364;18.016;2023-01-10T02:48:57;4.30;;;3.90;;
28028;SDS011;15345;59.364;18.016;2023-01-10T02:51:47;3.67;;;3.38;;
28028;SDS011;15345;59.364;18.016;2023-01-10T02:53:09;4.13;;;3.70;;
28028;SDS011;15345;59.364;18.016;2023-01-10T02:54:28;3.85;;;3.55;;
28028;SDS011;15345;59.364;18.016;2023-01-10T02:55:58;4.63;;;3.65;;
28028;SDS011;15345;59.364;18.016;2023-01-10T02:59:01;3.85;;;3.58;;
28028;SDS011;15345;59.364;18.016;2023-01-10T03:06:17;3.35;;;3.05;;
28028;SDS011;15345;59.364;18.016;2023-01-10T03:10:28;3.28;;;3.08;;
28028;SDS011;15345;59.364;18.016;2023-01-10T03:11:48;3.53;;;3.20;;
28028;SDS011;15345;59.364;18.016;2023-01-10T03:13:15;3.40;;;3.10;;
28028;SDS011;15345;59.364;18.016;2023-01-10T03:14:37;3.63;;;3.22;;
28028;SDS011;15345;59.364;18.016;2023-01-10T03:15:57;2.90;;;2.70;;
28028;SDS011;15345;59.364;18.016;2023-01-10T03:17:18;3.00;;;2.80;;
28028;SDS011;15345;59.364;18.016;2023-01-10T03:18:40;3.28;;;2.90;;
28028;SDS011;15345;59.364;18.016;2023-01-10T03:20:01;2.72;;;2.53;;
28028;SDS011;15345;59.364;18.016;2023-01-10T03:21:21;4.32;;;2.50;;
28028;SDS011;15345;59.364;18.016;2023-01-10T03:22:41;2.63;;;2.30;;
28028;SDS011;15345;59.364;18.016;2023-01-10T03:24:09;3.35;;;2.85;;
28028;SDS011;15345;59.364;18.016;2023-01-10T03:25:29;8.15;;;2.28;;
28028;SDS011;15345;59.364;18.016;2023-01-10T03:28:14;2.92;;;2.53;;
28028;SDS011;15345;59.364;18.016;2023-01-10T03:31:14;2.70;;;2.50;;
28028;SDS011;15345;59.364;18.016;2023-01-10T03:32:34;3.08;;;2.20;;
28028;SDS011;15345;59.364;18.016;2023-01-10T03:33:54;2.88;;;2.10;;
28028;SDS011;15345;59.364;18.016;2023-01-10T03:35:14;2.92;;;2.00;;
28028;SDS011;15345;59.364;18.016;2023-01-10T03:36:36;2.33;;;2.13;;
28028;SDS011;15345;59.364;18.016;2023-01-10T03:37:58;3.30;;;2.30;;
28028;SDS011;15345;59.364;18.016;2023-01-10T03:39:23;2.13;;;1.98;;
28028;SDS011;15345;59.364;18.016;2023-01-10T03:42:06;1.88;;;1.77;;
28028;SDS011;15345;59.364;18.016;2023-01-10T03:43:33;3.83;;;1.95;;
28028;SDS011;15345;59.364;18.016;2023-01-10T03:45:13;2.15;;;2.00;;
28028;SDS011;15345;59.364;18.016;2023-01-10T03:48:00;1.92;;;1.75;;
28028;SDS011;15345;59.364;18.016;2023-01-10T03:49:21;1.92;;;1.83;;
28028;SDS011;15345;59.364;18.016;2023-01-10T03:50:41;2.03;;;1.80;;
28028;SDS011;15345;59.364;18.016;2023-01-10T03:52:00;1.80;;;1.70;;
28028;SDS011;15345;59.364;18.016;2023-01-10T03:53:20;1.70;;;1.60;;
28028;SDS011;15345;59.364;18.016;2023-01-10T03:54:43;1.80;;;1.70;;
28028;SDS011;15345;59.364;18.016;2023-01-10T03:56:03;1.80;;;1.70;;
28028;SDS011;15345;59.364;18.016;2023-01-10T03:57:22;1.98;;;1.52;;
28028;SDS011;15345;59.364;18.016;2023-01-10T03:58:41;1.80;;;1.70;;
28028;SDS011;15345;59.364;18.016;2023-01-10T04:00:00;1.70;;;1.60;;
28028;SDS011;15345;59.364;18.016;2023-01-10T04:01:19;1.60;;;1.50;;
28028;SDS011;15345;59.364;18.016;2023-01-10T04:02:38;1.70;;;1.60;;
28028;SDS011;15345;59.364;18.016;2023-01-10T04:03:57;1.50;;;1.40;;
28028;SDS011;15345;59.364;18.016;2023-01-10T04:05:16;1.48;;;1.38;;
28028;SDS011;15345;59.364;18.016;2023-01-10T04:06:35;1.70;;;1.60;;
28028;SDS011;15345;59.364;18.016;2023-01-10T04:07:53;1.30;;;1.20;;
28028;SDS011;15345;59.364;18.016;2023-01-10T04:09:12;1.60;;;1.50;;
28028;SDS011;15345;59.364;18.016;2023-01-10T04:10:31;1.75;;;1.65;;
28028;SDS011;15345;59.364;18.016;2023-01-10T04:11:50;1.70;;;1.60;;
28028;SDS011;15345;59.364;18.016;2023-01-10T04:13:09;1.45;;;1.35;;
28028;SDS011;15345;59.364;18.016;2023-01-10T04:14:28;1.60;;;1.50;;
28028;SDS011;15345;59.364;18.016;2023-01-10T04:15:50;1.45;;;1.35;;
28028;SDS011;15345;59.364;18.016;2023-01-10T04:17:09;1.83;;;1.73;;
28028;SDS011;15345;59.364;18.016;2023-01-10T04:18:28;3.42;;;1.85;;
28028;SDS011;15345;59.364;18.016;2023-01-10T04:19:47;2.22;;;2.13;;
28028;SDS011;15345;59.364;18.016;2023-01-10T04:21:06;1.65;;;1.55;;
28028;SDS011;15345;59.364;18.016;2023-01-10T04:22:25;1.60;;;1.50;;
28028;SDS011;15345;59.364;18.016;2023-01-10T04:23:43;1.65;;;1.55;;
28028;SDS011;15345;59.364;18.016;2023-01-10T04:25:02;1.88;;;1.77;;
28028;SDS011;15345;59.364;18.016;2023-01-10T04:26:21;2.03;;;1.60;;
28028;SDS011;15345;59.364;18.016;2023-01-10T04:27:40;1.98;;;1.85;;
28028;SDS011;15345;59.364;18.016;2023-01-10T04:28:59;1.88;;;1.77;;
28028;SDS011;15345;59.364;18.016;2023-01-10T04:30:18;1.88;;;1.77;;
28028;SDS011;15345;59.364;18.016;2023-01-10T04:31:37;2.15;;;1.85;;
28028;SDS011;15345;59.364;18.016;2023-01-10T04:32:57;2.05;;;1.85;;
28028;SDS011;15345;59.364;18.016;2023-01-10T04:34:16;2.95;;;1.90;;
28028;SDS011;15345;59.364;18.016;2023-01-10T04:35:38;1.75;;;1.65;;
28028;SDS011;15345;59.364;18.016;2023-01-10T04:36:57;2.45;;;2.13;;
28028;SDS011;15345;59.364;18.016;2023-01-10T04:38:16;2.45;;;2.25;;
28028;SDS011;15345;59.364;18.016;2023-01-10T04:39:35;2.05;;;1.95;;
28028;SDS011;15345;59.364;18.016;2023-01-10T04:40:54;3.00;;;2.28;;
28028;SDS011;15345;59.364;18.016;2023-01-10T04:42:15;4.13;;;2.45;;
28028;SDS011;15345;59.364;18.016;2023-01-10T04:43:34;2.33;;;2.13;;
28028;SDS011;15345;59.364;18.016;2023-01-10T04:44:53;2.30;;;2.10;;
28028;SDS011;15345;59.364;18.016;2023-01-10T04:46:12;2.25;;;2.10;;
28028;SDS011;15345;59.364;18.016;2023-01-10T04:47:30;2.10;;;2.00;;
28028;SDS011;15345;59.364;18.016;2023-01-10T04:48:49;4.35;;;2.40;;
28028;SDS011;15345;59.364;18.016;2023-01-10T04:50:09;3.28;;;2.17;;
28028;SDS011;15345;59.364;18.016;2023-01-10T04:51:28;2.60;;;2.03;;
28028;SDS011;15345;59.364;18.016;2023-01-10T04:52:47;3.10;;;2.05;;
28028;SDS011;15345;59.364;18.016;2023-01-10T04:54:06;3.42;;;1.98;;
28028;SDS011;15345;59.364;18.016;2023-01-10T04:55:25;2.50;;;2.30;;
28028;SDS011;15345;59.364;18.016;2023-01-10T04:56:44;2.38;;;2.20;;
28028;SDS011;15345;59.364;18.016;2023-01-10T04:58:03;2.58;;;2.30;;
28028;SDS011;15345;59.364;18.016;2023-01-10T04:59:22;2.53;;;2.33;;
28028;SDS011;15345;59.364;18.016;2023-01-10T05:00:41;4.82;;;2.30;;
28028;SDS011;15345;59.364;18.016;2023-01-10T05:02:00;2.83;;;2.42;;
28028;SDS011;15345;59.364;18.016;2023-01-10T05:03:19;3.40;;;2.60;;
28028;SDS011;15345;59.364;18.016;2023-01-10T05:04:38;3.65;;;2.50;;
28028;SDS011;15345;59.364;18.016;2023-01-10T05:05:57;5.00;;;2.50;;
28028;SDS011;15345;59.364;18.016;2023-01-10T05:07:16;3.58;;;2.40;;
28028;SDS011;15345;59.364;18.016;2023-01-10T05:08:35;2.55;;;2.35;;
28028;SDS011;15345;59.364;18.016;2023-01-10T05:09:54;7.38;;;2.45;;
28028;SDS011;15345;59.364;18.016;2023-01-10T05:11:13;2.60;;;2.33;;
28028;SDS011;15345;59.364;18.016;2023-01-10T05:12:32;4.95;;;2.47;;
28028;SDS011;15345;59.364;18.016;2023-01-10T05:13:51;2.65;;;2.45;;
28028;SDS011;15345;59.364;18.016;2023-01-10T05:15:10;2.83;;;2.58;;
28028;SDS011;15345;59.364;18.016;2023-01-10T05:16:28;4.07;;;2.70;;
28028;SDS011;15345;59.364;18.016;2023-01-10T05:17:48;4.07;;;2.67;;
28028;SDS011;15345;59.364;18.016;2023-01-10T05:19:08;4.72;;;2.70;;
28028;SDS011;15345;59.364;18.016;2023-01-10T05:20:27;2.88;;;2.55;;
28028;SDS011;15345;59.364;18.016;2023-01-10T05:21:46;3.45;;;2.70;;
28028;SDS011;15345;59.364;18.016;2023-01-10T05:23:05;6.93;;;2.88;;
28028;SDS011;15345;59.364;18.016;2023-01-10T05:24:24;5.72;;;2.58;;
28028;SDS011;15345;59.364;18.016;2023-01-10T05:25:42;2.70;;;2.47;;
28028;SDS011;15345;59.364;18.016;2023-01-10T05:27:01;4.57;;;2.67;;
28028;SDS011;15345;59.364;18.016;2023-01-10T05:28:20;5.97;;;2.80;;
28028;SDS011;15345;59.364;18.016;2023-01-10T05:29:39;5.78;;;3.33;;
28028;SDS011;15345;59.364;18.016;2023-01-10T05:30:58;4.57;;;2.70;;
28028;SDS011;15345;59.364;18.016;2023-01-10T05:32:17;3.22;;;2.67;;
28028;SDS011;15345;59.364;18.016;2023-01-10T05:33:36;3.25;;;2.58;;
28028;SDS011;15345;59.364;18.016;2023-01-10T05:34:55;5.55;;;3.15;;
28028;SDS011;15345;59.364;18.016;2023-01-10T05:36:15;3.97;;;3.00;;
28028;SDS011;15345;59.364;18.016;2023-01-10T05:37:34;3.97;;;2.50;;
28028;SDS011;15345;59.364;18.016;2023-01-10T05:38:53;7.28;;;2.38;;
28028;SDS011;15345;59.364;18.016;2023-01-10T05:40:12;2.67;;;2.47;;
28028;SDS011;15345;59.364;18.016;2023-01-10T05:41:31;3.55;;;2.75;;
28028;SDS011;15345;59.364;18.016;2023-01-10T05:42:50;3.13;;;2.60;;
28028;SDS011;15345;59.364;18.016;2023-01-10T05:44:09;3.28;;;2.80;;
28028;SDS011;15345;59.364;18.016;2023-01-10T05:45:28;4.55;;;3.50;;
28028;SDS011;15345;59.364;18.016;2023-01-10T05:46:47;3.38;;;2.72;;
28028;SDS011;15345;59.364;18.016;2023-01-10T05:48:05;3.40;;;2.90;;
28028;SDS011;15345;59.364;18.016;2023-01-10T05:49:25;3.25;;;2.95;;
28028;SDS011;15345;59.364;18.016;2023-01-10T05:50:43;5.20;;;2.95;;
28028;SDS011;15345;59.364;18.016;2023-01-10T05:52:02;4.75;;;3.35;;
28028;SDS011;15345;59.364;18.016;2023-01-10T05:53:21;5.10;;;3.38;;
28028;SDS011;15345;59.364;18.016;2023-01-10T05:54:41;3.95;;;3.22;;
28028;SDS011;15345;59.364;18.016;2023-01-10T05:56:01;6.22;;;3.45;;
28028;SDS011;15345;59.364;18.016;2023-01-10T05:57:21;4.38;;;2.95;;
28028;SDS011;15345;59.364;18.016;2023-01-10T05:58:42;3.65;;;3.35;;
28028;SDS011;15345;59.364;18.016;2023-01-10T06:00:01;3.72;;;3.25;;
28028;SDS011;15345;59.364;18.016;2023-01-10T06:01:19;3.78;;;2.95;;
28028;SDS011;15345;59.364;18.016;2023-01-10T06:02:39;5.00;;;3.25;;
28028;SDS011;15345;59.364;18.016;2023-01-10T06:03:57;3.90;;;3.30;;
28028;SDS011;15345;59.364;18.016;2023-01-10T06:05:18;3.53;;;3.22;;
28028;SDS011;15345;59.364;18.016;2023-01-10T06:06:37;3.22;;;2.95;;
28028;SDS011;15345;59.364;18.016;2023-01-10T06:07:55;3.65;;;3.35;;
28028;SDS011;15345;59.364;18.016;2023-01-10T06:09:14;6.75;;;3.08;;
28028;SDS011;15345;59.364;18.016;2023-01-10T06:10:33;4.82;;;3.72;;
28028;SDS011;15345;59.364;18.016;2023-01-10T06:11:53;6.63;;;3.53;;
28028;SDS011;15345;59.364;18.016;2023-01-10T06:13:12;6.53;;;3.58;;
28028;SDS011;15345;59.364;18.016;2023-01-10T06:14:30;3.97;;;3.38;;
28028;SDS011;15345;59.364;18.016;2023-01-10T06:15:49;4.65;;;3.70;;
28028;SDS011;15345;59.364;18.016;2023-01-10T06:17:08;4.35;;;3.55;;
28028;SDS011;15345;59.364;18.016;2023-01-10T06:18:28;4.72;;;4.22;;
28028;SDS011;15345;59.364;18.016;2023-01-10T06:19:47;5.00;;;3.75;;
28028;SDS011;15345;59.364;18.016;2023-01-10T06:21:06;5.65;;;4.22;;
28028;SDS011;15345;59.364;18.016;2023-01-10T06:22:25;4.97;;;3.75;;
28028;SDS011;15345;59.364;18.016;2023-01-10T06:23:45;5.25;;;3.92;;
28028;SDS011;15345;59.364;18.016;2023-01-10T06:25:04;8.70;;;4.50;;
28028;SDS011;15345;59.364;18.016;2023-01-10T06:26:23;4.85;;;3.97;;
28028;SDS011;15345;59.364;18.016;2023-01-10T06:27:42;6.38;;;3.60;;
28028;SDS011;15345;59.364;18.016;2023-01-10T06:29:01;4.30;;;3.90;;
28028;SDS011;15345;59.364;18.016;2023-01-10T06:30:20;5.32;;;3.90;;
28028;SDS011;15345;59.364;18.016;2023-01-10T06:31:39;5.05;;;4.38;;
28028;SDS011;15345;59.364;18.016;2023-01-10T06:33:01;5.60;;;4.07;;
28028;SDS011;15345;59.364;18.016;2023-01-10T06:34:20;5.47;;;4.38;;
28028;SDS011;15345;59.364;18.016;2023-01-10T06:35:39;7.15;;;4.72;;
28028;SDS011;15345;59.364;18.016;2023-01-10T06:36:58;5.88;;;4.78;;
28028;SDS011;15345;59.364;18.016;2023-01-10T06:38:17;5.85;;;4.72;;
28028;SDS011;15345;59.364;18.016;2023-01-10T06:39:36;6.10;;;4.50;;
28028;SDS011;15345;59.364;18.016;2023-01-10T06:40:57;8.82;;;4.93;;
28028;SDS011;15345;59.364;18.016;2023-01-10T06:42:16;9.18;;;5.57;;
28028;SDS011;15345;59.364;18.016;2023-01-10T06:43:35;10.90;;;6.10;;
28028;SDS011;15345;59.364;18.016;2023-01-10T06:44:53;10.23;;;5.97;;
28028;SDS011;15345;59.364;18.016;2023-01-10T06:46:13;7.57;;;4.90;;
28028;SDS011;15345;59.364;18.016;2023-01-10T06:47:33;6.68;;;5.30;;
28028;SDS011;15345;59.364;18.016;2023-01-10T06:48:52;7.57;;;5.45;;
28028;SDS011;15345;59.364;18.016;2023-01-10T06:50:12;8.18;;;5.72;;
28028;SDS011;15345;59.364;18.016;2023-01-10T06:51:31;11.95;;;5.93;;
28028;SDS011;15345;59.364;18.016;2023-01-10T06:52:54;8.05;;;5.75;;
28028;SDS011;15345;59.364;18.016;2023-01-10T06:54:13;11.55;;;5.65;;
28028;SDS011;15345;59.364;18.016;2023-01-10T06:55:32;13.30;;;6.30;;
28028;SDS011;15345;59.364;18.016;2023-01-10T06:56:51;6.82;;;5.90;;
28028;SDS011;15345;59.364;18.016;2023-01-10T06:58:10;7.63;;;5.50;;
28028;SDS011;15345;59.364;18.016;2023-01-10T06:59:28;16.75;;;7.00;;
28028;SDS011;15345;59.364;18.016;2023-01-10T07:00:47;9.95;;;6.40;;
28028;SDS011;15345;59.364;18.016;2023-01-10T07:02:07;11.68;;;7.72;;
28028;SDS011;15345;59.364;18.016;2023-01-10T07:03:27;11.68;;;6.75;;
28028;SDS011;15345;59.364;18.016;2023-01-10T07:04:47;16.08;;;6.63;;
28028;SDS011;15345;59.364;18.016;2023-01-10T07:06:06;13.80;;;7.03;;
28028;SDS011;15345;59.364;18.016;2023-01-10T07:07:28;10.98;;;7.18;;
28028;SDS011;15345;59.364;18.016;2023-01-10T07:08:47;14.13;;;8.57;;
28028;SDS011;15345;59.364;18.016;2023-01-10T07:10:06;20.00;;;9.07;;
28028;SDS011;15345;59.364;18.016;2023-01-10T07:11:25;15.20;;;7.43;;
28028;SDS011;15345;59.364;18.016;2023-01-10T07:12:44;16.35;;;8.05;;
28028;SDS011;15345;59.364;18.016;2023-01-10T07:14:03;14.90;;;7.50;;
28028;SDS011;15345;59.364;18.016;2023-01-10T07:15:22;18.45;;;7.85;;
28028;SDS011;15345;59.364;18.016;2023-01-10T07:16:41;17.00;;;7.53;;
28028;SDS011;15345;59.364;18.016;2023-01-10T07:18:00;24.70;;;7.88;;
28028;SDS011;15345;59.364;18.016;2023-01-10T07:19:19;16.42;;;8.00;;
28028;SDS011;15345;59.364;18.016;2023-01-10T07:20:38;17.80;;;8.13;;
28028;SDS011;15345;59.364;18.016;2023-01-10T07:21:57;18.00;;;8.00;;
28028;SDS011;15345;59.364;18.016;2023-01-10T07:23:16;17.65;;;8.15;;
28028;SDS011;15345;59.364;18.016;2023-01-10T07:24:35;18.05;;;8.52;;
28028;SDS011;15345;59.364;18.016;2023-01-10T07:25:54;21.10;;;8.77;;
28028;SDS011;15345;59.364;18.016;2023-01-10T07:27:13;15.80;;;8.85;;
28028;SDS011;15345;59.364;18.016;2023-01-10T07:28:32;19.63;;;9.13;;
28028;SDS011;15345;59.364;18.016;2023-01-10T07:29:54;18.42;;;9.05;;
28028;SDS011;15345;59.364;18.016;2023-01-10T07:31:13;16.85;;;8.45;;
28028;SDS011;15345;59.364;18.016;2023-01-10T07:32:33;15.00;;;7.95;;
28028;SDS011;15345;59.364;18.016;2023-01-10T07:33:52;19.70;;;8.98;;
28028;SDS011;15345;59.364;18.016;2023-01-10T07:35:11;15.48;;;7.80;;
28028;SDS011;15345;59.364;18.016;2023-01-10T07:36:30;15.18;;;7.80;;
28028;SDS011;15345;59.364;18.016;2023-01-10T07:37:49;16.42;;;8.38;;
28028;SDS011;15345;59.364;18.016;2023-01-10T07:39:08;16.65;;;8.82;;
28028;SDS011;15345;59.364;18.016;2023-01-10T07:40:27;16.13;;;8.88;;
28028;SDS011;15345;59.364;18.016;2023-01-10T07:41:47;16.42;;;9.30;;
28028;SDS011;15345;59.364;18.016;2023-01-10T07:43:06;17.98;;;9.15;;
28028;SDS011;15345;59.364;18.016;2023-01-10T07:44:25;14.50;;;8.48;;
28028;SDS011;15345;59.364;18.016;2023-01-10T07:45:44;17.30;;;8.90;;
28028;SDS011;15345;59.364;18.016;2023-01-10T07:47:03;13.48;;;7.90;;
28028;SDS011;15345;59.364;18.016;2023-01-10T07:48:22;15.95;;;8.85;;
28028;SDS011;15345;59.364;18.016;2023-01-10T07:49:41;13.55;;;7.82;;
28028;SDS011;15345;59.364;18.016;2023-01-10T07:51:00;12.30;;;8.70;;
28028;SDS011;15345;59.364;18.016;2023-01-10T07:52:19;16.48;;;8.23;;
28028;SDS011;15345;59.364;18.016;2023-01-10T07:53:38;13.20;;;8.63;;
28028;SDS011;15345;59.364;18.016;2023-01-10T07:54:57;11.80;;;7.35;;
28028;SDS011;15345;59.364;18.016;2023-01-10T07:56:16;10.70;;;7.63;;
28028;SDS011;15345;59.364;18.016;2023-01-10T07:57:35;12.57;;;8.23;;
28028;SDS011;15345;59.364;18.016;2023-01-10T07:58:54;10.40;;;8.07;;
28028;SDS011;15345;59.364;18.016;2023-01-10T08:00:13;11.30;;;7.55;;
28028;SDS011;15345;59.364;18.016;2023-01-10T08:01:32;11.32;;;7.78;;
28028;SDS011;15345;59.364;18.016;2023-01-10T08:02:52;10.80;;;7.32;;
28028;SDS011;15345;59.364;18.016;2023-01-10T08:04:11;9.30;;;6.45;;
28028;SDS011;15345;59.364;18.016;2023-01-10T08:05:30;8.45;;;6.88;;
28028;SDS011;15345;59.364;18.016;2023-01-10T08:06:49;8.20;;;7.30;;
28028;SDS011;15345;59.364;18.016;2023-01-10T08:08:10;7.30;;;6.50;;
28028;SDS011;15345;59.364;18.016;2023-01-10T08:09:29;7.15;;;6.45;;
28028;SDS011;15345;59.364;18.016;2023-01-10T08:10:48;7.63;;;6.80;;
28028;SDS011;15345;59.364;18.016;2023-01-10T08:12:07;8.13;;;6.97;;
28028;SDS011;15345;59.364;18.016;2023-01-10T08:13:26;7.90;;;6.95;;
28028;SDS011;15345;59.364;18.016;2023-01-10T08:14:44;7.82;;;6.32;;
28028;SDS011;15345;59.364;18.016;2023-01-10T08:16:04;7.82;;;6.57;;
28028;SDS011;15345;59.364;18.016;2023-01-10T08:17:23;7.00;;;6.30;;
28028;SDS011;15345;59.364;18.016;2023-01-10T08:18:43;7.15;;;6.35;;
28028;SDS011;15345;59.364;18.016;2023-01-10T08:20:02;7.28;;;6.53;;
28028;SDS011;15345;59.364;18.016;2023-01-10T08:21:21;6.88;;;6.18;;
28028;SDS011;15345;59.364;18.016;2023-01-10T08:22:40;8.75;;;6.85;;
28028;SDS011;15345;59.364;18.016;2023-01-10T08:23:59;7.65;;;6.85;;
28028;SDS011;15345;59.364;18.016;2023-01-10T08:25:18;7.05;;;6.35;;
28028;SDS011;15345;59.364;18.016;2023-01-10T08:26:37;9.65;;;7.57;;
28028;SDS011;15345;59.364;18.016;2023-01-10T08:27:56;7.10;;;6.40;;
28028;SDS011;15345;59.364;18.016;2023-01-10T08:29:15;6.88;;;5.78;;
28028;SDS011;15345;59.364;18.016;2023-01-10T08:30:34;6.80;;;6.13;;